sensor_id;sensor_type;location;lat;lon;timestamp;P1;durP1;ratioP1;P2;durP2;ratioP2
6185;SDS011;3126;52.738;8.316;2023-02-13T00:00:49;18.10;;;9.95;;
6185;SDS011;3126;52.738;8.316;2023-02-13T00:05:50;15.70;;;9.95;;
6185;SDS011;3126;52.738;8.316;2023-02-13T00:10:51;15.68;;;9.80;;
6185;SDS011;3126;52.738;8.316;2023-02-13T00:15:56;17.63;;;9.85;;
6185;SDS011;3126;52.738;8.316;2023-02-13T00:21:01;17.98;;;10.45;;
6185;SDS011;3126;52.738;8.316;2023-02-13T00:26:06;18.90;;;8.98;;
6185;SDS011;3126;52.738;8.316;2023-02-13T00:31:08;17.17;;;9.93;;
6185;SDS011;3126;52.738;8.316;2023-02-13T00:36:11;17.52;;;9.98;;
6185;SDS011;3126;52.738;8.316;2023-02-13T00:41:12;15.07;;;10.18;;
6185;SDS011;3126;52.738;8.316;2023-02-13T00:46:15;19.65;;;11.20;;
6185;SDS011;3126;52.738;8.316;2023-02-13T00:51:16;17.13;;;10.70;;
6185;SDS011;3126;52.738;8.316;2023-02-13T00:56:17;17.83;;;10.23;;
6185;SDS011;3126;52.738;8.316;2023-02-13T01:01:18;18.23;;;10.10;;
6185;SDS011;3126;52.738;8.316;2023-02-13T01:06:19;17.35;;;10.75;;
6185;SDS011;3126;52.738;8.316;2023-02-13T01:11:21;20.00;;;11.35;;
6185;SDS011;3126;52.738;8.316;2023-02-13T01:16:22;18.55;;;10.50;;
6185;SDS011;3126;52.738;8.316;2023-02-13T01:21:23;19.58;;;11.68;;
6185;SDS011;3126;52.738;8.316;2023-02-13T01:26:24;18.00;;;10.80;;
6185;SDS011;3126;52.738;8.316;2023-02-13T01:31:25;23.10;;;12.07;;
6185;SDS011;3126;52.738;8.316;2023-02-13T01:36:26;20.05;;;11.85;;
6185;SDS011;3126;52.738;8.316;2023-02-13T01:41:27;22.52;;;13.15;;
6185;SDS011;3126;52.738;8.316;2023-02-13T01:46:33;23.25;;;12.35;;
6185;SDS011;3126;52.738;8.316;2023-02-13T01:51:35;21.70;;;13.43;;
6185;SDS011;3126;52.738;8.316;2023-02-13T01:56:37;20.63;;;13.02;;
6185;SDS011;3126;52.738;8.316;2023-02-13T02:01:40;22.92;;;13.30;;
6185;SDS011;3126;52.738;8.316;2023-02-13T02:06:43;21.95;;;12.88;;
6185;SDS011;3126;52.738;8.316;2023-02-13T02:11:52;22.05;;;12.77;;
6185;SDS011;3126;52.738;8.316;2023-02-13T02:16:55;24.05;;;14.93;;
6185;SDS011;3126;52.738;8.316;2023-02-13T02:22:00;23.63;;;13.43;;
6185;SDS011;3126;52.738;8.316;2023-02-13T02:27:23;19.90;;;11.35;;
6185;SDS011;3126;52.738;8.316;2023-02-13T02:58:27;21.67;;;11.40;;
6185;SDS011;3126;52.738;8.316;2023-02-13T03:04:04;20.90;;;11.95;;
6185;SDS011;3126;52.738;8.316;2023-02-13T03:09:28;19.02;;;12.15;;
6185;SDS011;3126;52.738;8.316;2023-02-13T03:14:49;21.80;;;12.23;;
6185;SDS011;3126;52.738;8.316;2023-02-13T03:40:51;18.15;;;12.30;;
6185;SDS011;3126;52.738;8.316;2023-02-13T03:46:13;17.55;;;11.23;;
6185;SDS011;3126;52.738;8.316;2023-02-13T03:51:20;22.42;;;11.45;;
6185;SDS011;3126;52.738;8.316;2023-02-13T03:56:22;21.02;;;11.55;;
6185;SDS011;3126;52.738;8.316;2023-02-13T04:01:45;18.25;;;11.07;;
6185;SDS011;3126;52.738;8.316;2023-02-13T04:07:00;19.50;;;11.15;;
6185;SDS011;3126;52.738;8.316;2023-02-13T04:12:12;21.38;;;11.13;;
6185;SDS011;3126;52.738;8.316;2023-02-13T04:17:17;20.65;;;11.63;;
6185;SDS011;3126;52.738;8.316;2023-02-13T04:22:20;16.83;;;10.70;;
6185;SDS011;3126;52.738;8.316;2023-02-13T04:27:21;20.25;;;11.77;;
6185;SDS011;3126;52.738;8.316;2023-02-13T04:32:25;22.00;;;11.68;;
6185;SDS011;3126;52.738;8.316;2023-02-13T04:37:26;19.77;;;11.32;;
6185;SDS011;3126;52.738;8.316;2023-02-13T04:42:27;20.98;;;11.73;;
6185;SDS011;3126;52.738;8.316;2023-02-13T04:47:28;18.80;;;11.43;;
6185;SDS011;3126;52.738;8.316;2023-02-13T04:52:29;21.85;;;12.00;;
6185;SDS011;3126;52.738;8.316;2023-02-13T04:57:30;21.25;;;11.50;;
6185;SDS011;3126;52.738;8.316;2023-02-13T05:02:31;19.85;;;11.20;;
6185;SDS011;3126;52.738;8.316;2023-02-13T05:07:32;18.10;;;10.75;;
6185;SDS011;3126;52.738;8.316;2023-02-13T05:12:33;18.65;;;10.48;;
6185;SDS011;3126;52.738;8.316;2023-02-13T05:17:34;20.38;;;12.10;;
6185;SDS011;3126;52.738;8.316;2023-02-13T05:22:35;18.95;;;10.60;;
6185;SDS011;3126;52.738;8.316;2023-02-13T05:27:55;19.75;;;10.95;;
6185;SDS011;3126;52.738;8.316;2023-02-13T05:32:56;20.75;;;12.15;;
6185;SDS011;3126;52.738;8.316;2023-02-13T05:37:57;19.88;;;10.98;;
6185;SDS011;3126;52.738;8.316;2023-02-13T05:42:58;21.42;;;12.30;;
6185;SDS011;3126;52.738;8.316;2023-02-13T05:47:59;20.20;;;11.20;;
6185;SDS011;3126;52.738;8.316;2023-02-13T05:53:00;20.13;;;12.13;;
6185;SDS011;3126;52.738;8.316;2023-02-13T05:58:01;21.45;;;11.77;;
6185;SDS011;3126;52.738;8.316;2023-02-13T06:03:02;20.38;;;11.70;;
6185;SDS011;3126;52.738;8.316;2023-02-13T06:08:03;19.83;;;11.43;;
6185;SDS011;3126;52.738;8.316;2023-02-13T06:13:04;20.02;;;12.40;;
6185;SDS011;3126;52.738;8.316;2023-02-13T06:18:05;21.60;;;13.02;;
6185;SDS011;3126;52.738;8.316;2023-02-13T06:23:06;20.48;;;12.15;;
6185;SDS011;3126;52.738;8.316;2023-02-13T06:28:07;23.33;;;14.57;;
6185;SDS011;3126;52.738;8.316;2023-02-13T06:33:08;24.25;;;13.85;;
6185;SDS011;3126;52.738;8.316;2023-02-13T06:38:09;24.35;;;13.13;;
6185;SDS011;3126;52.738;8.316;2023-02-13T06:43:10;26.25;;;13.63;;
6185;SDS011;3126;52.738;8.316;2023-02-13T06:48:11;25.73;;;14.68;;
6185;SDS011;3126;52.738;8.316;2023-02-13T06:53:13;24.75;;;14.77;;
6185;SDS011;3126;52.738;8.316;2023-02-13T06:58:14;28.90;;;16.20;;
6185;SDS011;3126;52.738;8.316;2023-02-13T07:03:15;27.90;;;15.25;;
6185;SDS011;3126;52.738;8.316;2023-02-13T07:08:16;27.13;;;14.55;;
6185;SDS011;3126;52.738;8.316;2023-02-13T07:13:17;25.42;;;13.70;;
6185;SDS011;3126;52.738;8.316;2023-02-13T07:18:18;23.65;;;14.02;;
6185;SDS011;3126;52.738;8.316;2023-02-13T07:23:19;26.20;;;14.40;;
6185;SDS011;3126;52.738;8.316;2023-02-13T07:28:20;24.20;;;13.65;;
6185;SDS011;3126;52.738;8.316;2023-02-13T07:33:21;26.13;;;15.10;;
6185;SDS011;3126;52.738;8.316;2023-02-13T07:38:22;22.75;;;13.68;;
6185;SDS011;3126;52.738;8.316;2023-02-13T07:43:23;23.30;;;14.18;;
6185;SDS011;3126;52.738;8.316;2023-02-13T07:48:24;23.58;;;13.82;;
6185;SDS011;3126;52.738;8.316;2023-02-13T07:53:26;21.95;;;13.88;;
6185;SDS011;3126;52.738;8.316;2023-02-13T07:58:27;27.60;;;15.35;;
6185;SDS011;3126;52.738;8.316;2023-02-13T08:03:28;25.15;;;14.43;;
6185;SDS011;3126;52.738;8.316;2023-02-13T08:08:29;24.60;;;15.23;;
6185;SDS011;3126;52.738;8.316;2023-02-13T08:13:31;26.63;;;14.73;;
6185;SDS011;3126;52.738;8.316;2023-02-13T08:18:32;23.00;;;13.55;;
6185;SDS011;3126;52.738;8.316;2023-02-13T08:23:33;25.42;;;14.82;;
6185;SDS011;3126;52.738;8.316;2023-02-13T08:28:34;27.30;;;15.32;;
6185;SDS011;3126;52.738;8.316;2023-02-13T08:33:36;25.77;;;14.25;;
6185;SDS011;3126;52.738;8.316;2023-02-13T08:38:38;24.05;;;14.57;;
6185;SDS011;3126;52.738;8.316;2023-02-13T08:43:39;29.48;;;16.02;;
6185;SDS011;3126;52.738;8.316;2023-02-13T08:48:40;28.38;;;15.07;;
6185;SDS011;3126;52.738;8.316;2023-02-13T08:53:41;28.13;;;16.02;;
6185;SDS011;3126;52.738;8.316;2023-02-13T08:58:42;26.08;;;14.70;;
6185;SDS011;3126;52.738;8.316;2023-02-13T09:03:43;25.05;;;14.95;;
6185;SDS011;3126;52.738;8.316;2023-02-13T09:08:44;25.52;;;14.48;;
6185;SDS011;3126;52.738;8.316;2023-02-13T09:13:45;24.77;;;14.80;;
6185;SDS011;3126;52.738;8.316;2023-02-13T09:18:47;26.90;;;14.10;;
6185;SDS011;3126;52.738;8.316;2023-02-13T09:23:49;22.67;;;13.80;;
6185;SDS011;3126;52.738;8.316;2023-02-13T09:28:50;22.88;;;13.75;;
6185;SDS011;3126;52.738;8.316;2023-02-13T09:33:51;23.73;;;14.15;;
6185;SDS011;3126;52.738;8.316;2023-02-13T09:38:53;25.30;;;14.63;;
6185;SDS011;3126;52.738;8.316;2023-02-13T09:43:58;23.08;;;14.43;;
6185;SDS011;3126;52.738;8.316;2023-02-13T09:49:04;23.15;;;13.52;;
6185;SDS011;3126;52.738;8.316;2023-02-13T09:54:07;25.83;;;16.80;;
6185;SDS011;3126;52.738;8.316;2023-02-13T09:59:15;31.35;;;20.08;;
6185;SDS011;3126;52.738;8.316;2023-02-13T10:35:09;21.38;;;12.88;;
6185;SDS011;3126;52.738;8.316;2023-02-13T10:40:16;22.08;;;13.60;;
6185;SDS011;3126;52.738;8.316;2023-02-13T10:45:24;21.60;;;12.98;;
6185;SDS011;3126;52.738;8.316;2023-02-13T11:01:26;23.05;;;13.90;;
6185;SDS011;3126;52.738;8.316;2023-02-13T11:06:30;21.80;;;13.50;;
6185;SDS011;3126;52.738;8.316;2023-02-13T11:11:33;20.48;;;14.13;;
6185;SDS011;3126;52.738;8.316;2023-02-13T11:21:48;18.90;;;12.13;;
6185;SDS011;3126;52.738;8.316;2023-02-13T11:26:51;21.17;;;13.30;;
6185;SDS011;3126;52.738;8.316;2023-02-13T11:52:26;18.10;;;11.25;;
6185;SDS011;3126;52.738;8.316;2023-02-13T12:02:29;16.42;;;10.77;;
6185;SDS011;3126;52.738;8.316;2023-02-13T12:07:30;19.92;;;11.60;;
6185;SDS011;3126;52.738;8.316;2023-02-13T12:12:43;16.83;;;10.60;;
6185;SDS011;3126;52.738;8.316;2023-02-13T12:17:47;16.15;;;10.75;;
6185;SDS011;3126;52.738;8.316;2023-02-13T12:22:54;13.98;;;8.70;;
6185;SDS011;3126;52.738;8.316;2023-02-13T12:38:30;12.75;;;8.13;;
6185;SDS011;3126;52.738;8.316;2023-02-13T12:48:31;14.90;;;8.27;;
6185;SDS011;3126;52.738;8.316;2023-02-13T12:53:40;13.10;;;8.77;;
6185;SDS011;3126;52.738;8.316;2023-02-13T12:58:52;12.52;;;8.15;;
6185;SDS011;3126;52.738;8.316;2023-02-13T13:09:19;12.35;;;8.20;;
6185;SDS011;3126;52.738;8.316;2023-02-13T13:30:22;11.52;;;6.82;;
6185;SDS011;3126;52.738;8.316;2023-02-13T13:35:23;10.57;;;7.65;;
6185;SDS011;3126;52.738;8.316;2023-02-13T13:40:28;11.02;;;7.53;;
6185;SDS011;3126;52.738;8.316;2023-02-13T13:50:42;12.00;;;7.43;;
6185;SDS011;3126;52.738;8.316;2023-02-13T14:01:16;9.60;;;6.68;;
6185;SDS011;3126;52.738;8.316;2023-02-13T14:11:40;9.90;;;6.85;;
6185;SDS011;3126;52.738;8.316;2023-02-13T14:16:42;10.13;;;6.68;;
6185;SDS011;3126;52.738;8.316;2023-02-13T14:21:43;11.63;;;8.43;;
6185;SDS011;3126;52.738;8.316;2023-02-13T14:26:56;8.73;;;6.40;;
6185;SDS011;3126;52.738;8.316;2023-02-13T14:32:02;8.65;;;6.93;;
6185;SDS011;3126;52.738;8.316;2023-02-13T14:42:22;8.20;;;5.97;;
6185;SDS011;3126;52.738;8.316;2023-02-13T14:47:27;13.27;;;8.57;;
6185;SDS011;3126;52.738;8.316;2023-02-13T14:52:38;10.48;;;7.45;;
6185;SDS011;3126;52.738;8.316;2023-02-13T14:57:43;8.48;;;6.80;;
6185;SDS011;3126;52.738;8.316;2023-02-13T15:02:45;11.43;;;7.47;;
6185;SDS011;3126;52.738;8.316;2023-02-13T15:07:48;8.73;;;5.70;;
6185;SDS011;3126;52.738;8.316;2023-02-13T15:13:00;6.47;;;5.25;;
6185;SDS011;3126;52.738;8.316;2023-02-13T15:18:02;9.10;;;5.75;;
6185;SDS011;3126;52.738;8.316;2023-02-13T15:23:03;10.30;;;6.95;;
6185;SDS011;3126;52.738;8.316;2023-02-13T15:28:16;9.60;;;7.25;;
6185;SDS011;3126;52.738;8.316;2023-02-13T15:33:20;8.77;;;6.43;;
6185;SDS011;3126;52.738;8.316;2023-02-13T15:38:32;9.02;;;6.35;;
6185;SDS011;3126;52.738;8.316;2023-02-13T15:48:34;8.38;;;6.32;;
6185;SDS011;3126;52.738;8.316;2023-02-13T15:53:35;11.38;;;7.05;;
6185;SDS011;3126;52.738;8.316;2023-02-13T15:58:36;10.50;;;6.63;;
6185;SDS011;3126;52.738;8.316;2023-02-13T16:03:37;11.38;;;7.30;;
6185;SDS011;3126;52.738;8.316;2023-02-13T16:08:42;10.18;;;7.47;;
6185;SDS011;3126;52.738;8.316;2023-02-13T16:18:54;10.98;;;7.40;;
6185;SDS011;3126;52.738;8.316;2023-02-13T16:23:57;11.77;;;7.18;;
6185;SDS011;3126;52.738;8.316;2023-02-13T16:28:59;11.82;;;7.05;;
6185;SDS011;3126;52.738;8.316;2023-02-13T16:34:00;9.52;;;6.28;;
6185;SDS011;3126;52.738;8.316;2023-02-13T16:39:35;10.85;;;6.57;;
6185;SDS011;3126;52.738;8.316;2023-02-13T16:44:35;10.82;;;7.20;;
6185;SDS011;3126;52.738;8.316;2023-02-13T16:49:36;10.85;;;7.25;;
6185;SDS011;3126;52.738;8.316;2023-02-13T17:09:53;13.60;;;8.23;;
6185;SDS011;3126;52.738;8.316;2023-02-13T17:14:55;12.57;;;7.53;;
6185;SDS011;3126;52.738;8.316;2023-02-13T17:19:57;12.63;;;7.25;;
6185;SDS011;3126;52.738;8.316;2023-02-13T17:24:59;13.82;;;7.85;;
6185;SDS011;3126;52.738;8.316;2023-02-13T17:30:01;12.68;;;7.78;;
6185;SDS011;3126;52.738;8.316;2023-02-13T17:35:02;13.57;;;7.50;;
6185;SDS011;3126;52.738;8.316;2023-02-13T17:40:03;12.00;;;7.90;;
6185;SDS011;3126;52.738;8.316;2023-02-13T17:45:04;14.20;;;7.38;;
6185;SDS011;3126;52.738;8.316;2023-02-13T17:50:05;14.70;;;7.68;;
6185;SDS011;3126;52.738;8.316;2023-02-13T17:55:15;13.02;;;7.22;;
6185;SDS011;3126;52.738;8.316;2023-02-13T18:00:17;15.60;;;8.32;;
6185;SDS011;3126;52.738;8.316;2023-02-13T18:05:22;12.05;;;7.60;;
6185;SDS011;3126;52.738;8.316;2023-02-13T18:10:24;13.13;;;7.40;;
6185;SDS011;3126;52.738;8.316;2023-02-13T18:15:26;15.63;;;7.95;;
6185;SDS011;3126;52.738;8.316;2023-02-13T18:20:27;15.45;;;8.80;;
6185;SDS011;3126;52.738;8.316;2023-02-13T18:25:28;17.58;;;8.40;;
6185;SDS011;3126;52.738;8.316;2023-02-13T18:30:29;15.25;;;8.23;;
6185;SDS011;3126;52.738;8.316;2023-02-13T18:35:30;16.45;;;9.25;;
6185;SDS011;3126;52.738;8.316;2023-02-13T18:40:32;16.77;;;9.63;;
6185;SDS011;3126;52.738;8.316;2023-02-13T18:45:34;23.42;;;9.98;;
6185;SDS011;3126;52.738;8.316;2023-02-13T18:50:37;15.88;;;8.50;;
6185;SDS011;3126;52.738;8.316;2023-02-13T18:55:38;17.95;;;8.68;;
6185;SDS011;3126;52.738;8.316;2023-02-13T19:00:39;15.65;;;8.38;;
6185;SDS011;3126;52.738;8.316;2023-02-13T19:05:40;22.77;;;11.13;;
6185;SDS011;3126;52.738;8.316;2023-02-13T19:10:41;18.17;;;8.80;;
6185;SDS011;3126;52.738;8.316;2023-02-13T19:15:42;18.80;;;10.57;;
6185;SDS011;3126;52.738;8.316;2023-02-13T19:20:43;17.48;;;10.50;;
6185;SDS011;3126;52.738;8.316;2023-02-13T19:25:44;14.73;;;9.02;;
6185;SDS011;3126;52.738;8.316;2023-02-13T19:30:45;19.48;;;9.07;;
6185;SDS011;3126;52.738;8.316;2023-02-13T19:35:55;16.17;;;8.55;;
6185;SDS011;3126;52.738;8.316;2023-02-13T19:41:01;15.52;;;9.25;;
6185;SDS011;3126;52.738;8.316;2023-02-13T19:46:09;18.30;;;10.10;;
6185;SDS011;3126;52.738;8.316;2023-02-13T19:51:12;18.90;;;9.55;;
6185;SDS011;3126;52.738;8.316;2023-02-13T19:56:14;16.52;;;8.52;;
6185;SDS011;3126;52.738;8.316;2023-02-13T20:01:16;15.38;;;9.07;;
6185;SDS011;3126;52.738;8.316;2023-02-13T20:06:18;17.27;;;9.98;;
6185;SDS011;3126;52.738;8.316;2023-02-13T20:11:20;20.92;;;10.55;;
6185;SDS011;3126;52.738;8.316;2023-02-13T20:16:21;21.30;;;9.95;;
6185;SDS011;3126;52.738;8.316;2023-02-13T20:21:22;18.70;;;10.95;;
6185;SDS011;3126;52.738;8.316;2023-02-13T20:26:23;22.75;;;10.90;;
6185;SDS011;3126;52.738;8.316;2023-02-13T20:31:24;24.17;;;10.27;;
6185;SDS011;3126;52.738;8.316;2023-02-13T20:36:27;19.92;;;9.82;;
6185;SDS011;3126;52.738;8.316;2023-02-13T20:41:29;18.50;;;9.77;;
6185;SDS011;3126;52.738;8.316;2023-02-13T20:46:31;22.60;;;10.15;;
6185;SDS011;3126;52.738;8.316;2023-02-13T20:51:32;20.60;;;10.05;;
6185;SDS011;3126;52.738;8.316;2023-02-13T20:56:33;20.05;;;10.18;;
6185;SDS011;3126;52.738;8.316;2023-02-13T21:01:35;21.70;;;10.80;;
6185;SDS011;3126;52.738;8.316;2023-02-13T21:06:39;21.25;;;10.77;;
6185;SDS011;3126;52.738;8.316;2023-02-13T21:11:41;20.13;;;9.52;;
6185;SDS011;3126;52.738;8.316;2023-02-13T21:16:42;25.70;;;11.50;;
6185;SDS011;3126;52.738;8.316;2023-02-13T21:21:44;21.73;;;10.20;;
6185;SDS011;3126;52.738;8.316;2023-02-13T21:26:46;19.17;;;9.23;;
6185;SDS011;3126;52.738;8.316;2023-02-13T21:31:47;20.80;;;10.90;;
6185;SDS011;3126;52.738;8.316;2023-02-13T21:36:48;24.50;;;11.75;;
6185;SDS011;3126;52.738;8.316;2023-02-13T21:41:49;23.17;;;12.00;;
6185;SDS011;3126;52.738;8.316;2023-02-13T21:46:50;20.08;;;9.80;;
6185;SDS011;3126;52.738;8.316;2023-02-13T21:51:51;24.08;;;11.23;;
6185;SDS011;3126;52.738;8.316;2023-02-13T21:56:52;22.23;;;11.68;;
6185;SDS011;3126;52.738;8.316;2023-02-13T22:01:53;24.65;;;12.25;;
6185;SDS011;3126;52.738;8.316;2023-02-13T22:06:54;26.02;;;12.25;;
6185;SDS011;3126;52.738;8.316;2023-02-13T22:11:56;29.10;;;12.85;;
6185;SDS011;3126;52.738;8.316;2023-02-13T22:16:57;28.45;;;12.90;;
6185;SDS011;3126;52.738;8.316;2023-02-13T22:21:58;27.60;;;12.35;;
6185;SDS011;3126;52.738;8.316;2023-02-13T22:26:59;25.10;;;11.60;;
6185;SDS011;3126;52.738;8.316;2023-02-13T22:32:00;25.95;;;11.93;;
6185;SDS011;3126;52.738;8.316;2023-02-13T22:37:01;23.63;;;11.48;;
6185;SDS011;3126;52.738;8.316;2023-02-13T22:42:02;20.23;;;11.60;;
6185;SDS011;3126;52.738;8.316;2023-02-13T22:47:03;22.75;;;11.32;;
6185;SDS011;3126;52.738;8.316;2023-02-13T22:52:04;20.17;;;10.80;;
6185;SDS011;3126;52.738;8.316;2023-02-13T22:57:05;20.45;;;12.45;;
6185;SDS011;3126;52.738;8.316;2023-02-13T23:02:06;22.65;;;10.50;;
6185;SDS011;3126;52.738;8.316;2023-02-13T23:07:07;16.15;;;8.77;;
6185;SDS011;3126;52.738;8.316;2023-02-13T23:12:08;18.80;;;9.13;;
6185;SDS011;3126;52.738;8.316;2023-02-13T23:17:28;16.13;;;9.80;;
6185;SDS011;3126;52.738;8.316;2023-02-13T23:22:48;19.00;;;8.90;;
6185;SDS011;3126;52.738;8.316;2023-02-13T23:27:49;14.43;;;8.27;;
6185;SDS011;3126;52.738;8.316;2023-02-13T23:32:52;16.08;;;8.07;;
6185;SDS011;3126;52.738;8.316;2023-02-13T23:37:53;13.00;;;7.72;;
6185;SDS011;3126;52.738;8.316;2023-02-13T23:42:54;18.30;;;9.02;;
6185;SDS011;3126;52.738;8.316;2023-02-13T23:47:55;19.63;;;10.38;;
6185;SDS011;3126;52.738;8.316;2023-02-13T23:52:57;17.85;;;9.00;;
6185;SDS011;3126;52.738;8.316;2023-02-13T23:57:59;18.75;;;9.55;;
